Time;durP1;ratioP1;P1;durP2;ratioP2;P2;SDS_P1;SDS_P2;PMS_P1;PMS_P2;Temp;Humidity;BMP_temperature;BMP_pressure;BME280_temperature;BME280_humidity;BME280_pressure;Samples;Min_cycle;Max_cycle;Signal;HPM_P1;HPM_P2
2021/12/28 00:00:19;;;;;;;34.03;6.03;;;9.30;99.90;;;;;;5077582;28;20300;-67
2021/12/28 00:02:46;;;;;;;30.23;5.80;;;9.40;99.90;;;;;;5077149;28;20021;-66
2021/12/28 00:05:14;;;;;;;38.10;6.35;;;9.50;99.90;;;;;;5076941;28;20056;-67
2021/12/28 00:07:40;;;;;;;38.25;6.15;;;9.60;99.90;;;;;;5044164;28;20039;-67
2021/12/28 00:10:08;;;;;;;32.53;5.43;;;9.60;99.90;;;;;;5077213;28;20032;-65
2021/12/28 00:12:37;;;;;;;40.75;5.85;;;9.70;99.90;;;;;;5077306;28;20304;-65
2021/12/28 00:15:30;;;;;;;32.35;5.55;;;9.70;99.90;;;;;;5077192;28;20067;-65
2021/12/28 00:17:59;;;;;;;39.60;6.05;;;9.80;99.90;;;;;;5078261;28;20343;-66
2021/12/28 00:20:40;;;;;;;34.17;5.05;;;9.80;99.90;;;;;;5077207;28;20307;-65
2021/12/28 00:23:09;;;;;;;34.78;5.32;;;9.80;99.90;;;;;;5077834;28;20029;-66
2021/12/28 00:25:35;;;;;;;40.90;6.32;;;9.90;99.90;;;;;;5078361;28;20116;-65
2021/12/28 00:28:02;;;;;;;35.63;5.32;;;9.90;99.90;;;;;;5077962;28;20136;-66
2021/12/28 00:30:29;;;;;;;33.10;5.40;;;9.90;99.90;;;;;;5077774;28;20086;-66
2021/12/28 00:32:56;;;;;;;38.33;6.03;;;9.90;99.90;;;;;;5077478;28;20433;-66
2021/12/28 00:35:35;;;;;;;30.05;5.30;;;9.90;99.90;;;;;;5076505;28;20320;-65
2021/12/28 00:38:02;;;;;;;34.45;5.35;;;10.00;99.90;;;;;;5077742;28;20111;-65
2021/12/28 00:40:28;;;;;;;40.40;6.25;;;10.00;99.90;;;;;;5077993;28;20028;-66
2021/12/28 00:42:55;;;;;;;40.42;5.45;;;10.00;99.90;;;;;;5077303;28;20028;-66
2021/12/28 00:45:21;;;;;;;30.33;5.40;;;10.00;99.90;;;;;;5077400;28;20300;-66
2021/12/28 00:47:47;;;;;;;42.92;5.93;;;10.00;99.90;;;;;;5076592;28;20345;-66
2021/12/28 00:50:15;;;;;;;31.40;4.90;;;10.00;99.90;;;;;;5077275;28;20139;-66
2021/12/28 00:52:41;;;;;;;35.58;5.70;;;10.00;99.90;;;;;;5077138;28;20277;-66
2021/12/28 00:55:08;;;;;;;36.22;5.22;;;10.10;99.90;;;;;;5076377;28;20028;-65
2021/12/28 00:57:34;;;;;;;31.38;4.82;;;10.10;99.90;;;;;;5077123;28;20059;-66
2021/12/28 01:00:01;;;;;;;38.53;5.22;;;10.10;99.90;;;;;;5077081;28;20067;-66
2021/12/28 01:02:27;;;;;;;28.02;4.65;;;10.10;99.90;;;;;;5077096;28;20036;-65
2021/12/28 01:04:53;;;;;;;38.85;6.30;;;10.10;99.90;;;;;;5077379;28;20081;-65
2021/12/28 01:07:19;;;;;;;33.55;4.85;;;10.20;99.90;;;;;;5076333;28;20039;-66
2021/12/28 01:09:45;;;;;;;33.25;5.68;;;10.20;99.90;;;;;;5076227;28;20035;-65
2021/12/28 01:12:11;;;;;;;40.35;5.13;;;10.20;99.90;;;;;;5076995;28;20027;-65
2021/12/28 01:14:37;;;;;;;30.50;5.72;;;10.20;99.90;;;;;;5076830;28;20032;-65
2021/12/28 01:17:04;;;;;;;37.40;5.65;;;10.20;99.90;;;;;;5076911;28;20043;-65
2021/12/28 01:19:30;;;;;;;28.55;5.07;;;10.20;99.90;;;;;;5076981;28;20035;-66
2021/12/28 01:21:56;;;;;;;32.28;5.32;;;10.20;99.90;;;;;;5076958;28;20031;-67
2021/12/28 01:24:23;;;;;;;36.72;6.22;;;10.30;99.90;;;;;;5076968;28;20036;-66
2021/12/28 01:26:49;;;;;;;38.17;6.00;;;10.30;99.90;;;;;;5077478;28;20300;-66
2021/12/28 01:29:15;;;;;;;26.63;5.05;;;10.30;99.90;;;;;;5076806;28;20110;-66
2021/12/28 01:31:41;;;;;;;31.90;4.72;;;10.40;99.90;;;;;;5076846;28;20036;-66
2021/12/28 01:34:08;;;;;;;27.70;4.60;;;10.40;99.90;;;;;;5076694;28;20032;-66
2021/12/28 01:36:36;;;;;;;31.13;4.97;;;10.30;99.90;;;;;;5075938;28;20315;-66
2021/12/28 01:39:04;;;;;;;40.80;5.50;;;10.30;99.90;;;;;;5076625;28;20129;-66
2021/12/28 01:41:31;;;;;;;32.22;4.55;;;10.30;99.90;;;;;;5077078;28;20032;-66
2021/12/28 01:43:58;;;;;;;30.05;4.50;;;10.30;99.90;;;;;;5076590;28;20024;-66
2021/12/28 01:46:25;;;;;;;36.83;5.88;;;10.40;99.90;;;;;;5076615;28;20128;-66
2021/12/28 01:48:50;;;;;;;26.65;5.18;;;10.40;99.90;;;;;;5075895;28;20354;-65
2021/12/28 01:51:22;;;;;;;30.55;5.63;;;10.40;99.90;;;;;;5076558;28;20028;-66
2021/12/28 01:53:51;;;;;;;27.87;5.57;;;10.40;99.90;;;;;;5076602;28;20043;-66
2021/12/28 01:56:20;;;;;;;31.75;4.75;;;10.40;99.90;;;;;;5076548;28;20047;-65
2021/12/28 01:58:46;;;;;;;28.90;5.13;;;10.30;99.90;;;;;;5076478;28;20032;-66
2021/12/28 02:01:13;;;;;;;29.20;4.97;;;10.40;99.90;;;;;;5076332;28;20384;-66
2021/12/28 02:03:44;;;;;;;33.40;4.50;;;10.40;99.90;;;;;;5076490;28;20120;-66
2021/12/28 02:06:10;;;;;;;32.67;5.55;;;10.40;99.90;;;;;;5075703;28;20059;-65
2021/12/28 02:08:37;;;;;;;32.42;5.45;;;10.40;99.90;;;;;;5042529;28;20035;-66
2021/12/28 02:11:04;;;;;;;34.88;4.95;;;10.30;99.90;;;;;;5076898;28;20033;-66
2021/12/28 02:13:30;;;;;;;32.35;5.30;;;10.30;99.90;;;;;;5076161;28;20033;-66
2021/12/28 02:15:57;;;;;;;32.47;4.38;;;10.30;99.90;;;;;;5076321;28;20036;-66
2021/12/28 02:18:26;;;;;;;24.92;4.60;;;10.40;99.90;;;;;;5076438;28;20032;-66
2021/12/28 02:20:53;;;;;;;33.42;4.45;;;10.40;99.90;;;;;;5076322;28;20036;-66
2021/12/28 02:23:20;;;;;;;29.13;4.47;;;10.40;99.90;;;;;;5076268;28;20036;-66
2021/12/28 02:25:46;;;;;;;29.15;4.88;;;10.50;99.90;;;;;;5076236;28;20033;-66
2021/12/28 02:28:13;;;;;;;28.60;4.85;;;10.40;99.90;;;;;;5079101;28;20051;-66
2021/12/28 02:30:42;;;;;;;32.13;4.32;;;10.40;99.90;;;;;;5079191;28;20043;-66
2021/12/28 02:33:08;;;;;;;27.98;4.35;;;10.30;99.90;;;;;;5078946;28;20150;-66
2021/12/28 02:35:35;;;;;;;28.15;4.65;;;10.30;99.90;;;;;;5079590;28;20109;-67
2021/12/28 02:38:01;;;;;;;25.25;4.22;;;10.20;99.90;;;;;;5079713;28;20427;-67
2021/12/28 02:40:30;;;;;;;28.30;4.35;;;10.20;99.90;;;;;;5079680;28;20112;-65
2021/12/28 02:42:58;;;;;;;27.25;3.85;;;10.20;99.90;;;;;;5079631;28;20437;-66
2021/12/28 02:45:28;;;;;;;24.92;4.20;;;10.30;99.90;;;;;;5079614;28;20025;-67
2021/12/28 02:47:55;;;;;;;24.92;4.45;;;10.30;99.90;;;;;;5079434;28;20032;-66
2021/12/28 02:50:33;;;;;;;24.80;4.72;;;10.30;99.90;;;;;;5079622;28;20052;-66
2021/12/28 02:52:59;;;;;;;18.10;3.55;;;10.30;99.90;;;;;;5079440;28;20032;-66
2021/12/28 02:55:28;;;;;;;27.88;3.65;;;10.30;99.90;;;;;;5078761;28;20028;-65
2021/12/28 02:57:58;;;;;;;20.02;3.60;;;10.30;99.90;;;;;;5079333;28;20032;-67
2021/12/28 03:00:47;;;;;;;22.10;3.53;;;10.30;99.90;;;;;;5079388;28;20032;-66
2021/12/28 03:03:16;;;;;;;20.50;3.63;;;10.40;99.90;;;;;;5078669;28;20033;-66
2021/12/28 03:05:45;;;;;;;20.02;4.13;;;10.30;99.90;;;;;;5079386;28;20101;-65
2021/12/28 03:08:12;;;;;;;13.30;3.10;;;10.30;99.90;;;;;;5079107;28;20025;-66
2021/12/28 03:10:39;;;;;;;18.88;3.75;;;10.40;99.90;;;;;;5078500;28;20025;-65
2021/12/28 03:13:06;;;;;;;16.50;2.67;;;10.30;99.90;;;;;;5079010;28;20044;-66
2021/12/28 03:15:33;;;;;;;17.60;3.42;;;10.40;99.90;;;;;;5079507;28;20029;-66
2021/12/28 03:17:58;;;;;;;22.60;3.75;;;10.40;99.90;;;;;;5079320;28;20319;-65
2021/12/28 03:20:25;;;;;;;17.70;3.33;;;10.40;99.90;;;;;;5078997;28;20040;-66
2021/12/28 03:22:51;;;;;;;16.42;3.10;;;10.40;99.90;;;;;;5079281;28;20371;-66
2021/12/28 03:25:17;;;;;;;18.85;3.42;;;10.40;99.90;;;;;;5078246;28;20067;-67
2021/12/28 03:27:43;;;;;;;24.25;3.05;;;10.40;99.90;;;;;;5078520;28;20303;-66
2021/12/28 03:30:13;;;;;;;17.70;3.63;;;10.40;99.90;;;;;;5078826;28;20064;-65
2021/12/28 03:32:40;;;;;;;15.70;3.30;;;10.30;99.90;;;;;;5078555;28;20036;-66
2021/12/28 03:35:08;;;;;;;19.83;3.20;;;10.30;99.90;;;;;;5077810;28;20063;-66
2021/12/28 03:37:35;;;;;;;20.38;2.83;;;10.40;99.90;;;;;;5078344;28;20033;-66
2021/12/28 03:40:04;;;;;;;16.20;3.25;;;10.30;99.90;;;;;;5077990;28;20367;-65
2021/12/28 03:42:30;;;;;;;16.55;2.90;;;10.30;99.90;;;;;;5077637;28;20071;-66
2021/12/28 03:44:56;;;;;;;17.15;2.97;;;10.30;99.90;;;;;;5077894;28;20052;-65
2021/12/28 03:47:22;;;;;;;15.32;2.65;;;10.30;99.90;;;;;;5078388;28;20040;-66
2021/12/28 03:49:48;;;;;;;17.45;3.08;;;10.30;99.90;;;;;;5078443;28;20044;-65
2021/12/28 03:52:13;;;;;;;14.52;2.97;;;10.30;99.90;;;;;;5077562;28;20422;-66
2021/12/28 03:54:39;;;;;;;13.80;2.53;;;10.30;99.90;;;;;;5078349;28;20174;-65
2021/12/28 03:57:05;;;;;;;11.80;2.78;;;10.30;99.90;;;;;;5078740;28;20024;-66
2021/12/28 03:59:31;;;;;;;14.52;2.45;;;10.40;99.90;;;;;;5077383;28;20036;-65
2021/12/28 04:01:57;;;;;;;16.90;3.55;;;10.40;99.90;;;;;;5078104;28;20032;-66
2021/12/28 04:04:23;;;;;;;11.93;2.42;;;10.40;99.90;;;;;;5077314;28;20315;-65
2021/12/28 04:06:49;;;;;;;14.02;2.30;;;10.30;99.90;;;;;;5077990;28;20048;-66
2021/12/28 04:09:22;;;;;;;16.30;2.70;;;10.30;99.90;;;;;;5077265;28;20028;-66
2021/12/28 04:11:49;;;;;;;15.95;2.70;;;10.30;99.90;;;;;;5077963;28;20097;-66
2021/12/28 04:14:15;;;;;;;18.77;2.65;;;10.30;99.90;;;;;;5077797;28;20098;-65
2021/12/28 04:16:41;;;;;;;19.45;3.15;;;10.30;99.90;;;;;;5076986;28;20048;-65
2021/12/28 04:19:08;;;;;;;13.30;3.10;;;10.30;99.90;;;;;;5077762;28;20131;-65
2021/12/28 04:21:35;;;;;;;13.25;2.50;;;10.30;99.90;;;;;;5078246;28;20032;-66
2021/12/28 04:24:01;;;;;;;14.43;3.08;;;10.40;99.90;;;;;;5076936;28;20380;-66
2021/12/28 04:26:28;;;;;;;36.13;18.80;;;10.40;99.90;;;;;;5077409;28;20041;-66
2021/12/28 04:28:54;;;;;;;10.90;2.67;;;10.40;99.90;;;;;;5076488;28;20098;-64
2021/12/28 04:31:21;;;;;;;12.02;2.15;;;10.30;99.90;;;;;;5078105;28;20032;-63
2021/12/28 04:33:47;;;;;;;13.68;2.40;;;10.30;99.90;;;;;;5077387;28;20098;-63
2021/12/28 04:36:15;;;;;;;18.02;2.65;;;10.20;99.90;;;;;;5059920;28;20350;-64
2021/12/28 04:38:45;;;;;;;11.40;2.47;;;10.20;99.90;;;;;;5077418;28;20300;-63
2021/12/28 04:41:11;;;;;;;10.57;2.25;;;10.20;99.90;;;;;;5077295;28;20020;-63
2021/12/28 04:43:37;;;;;;;12.70;2.28;;;10.10;99.90;;;;;;5077285;28;20086;-63
2021/12/28 04:46:04;;;;;;;14.77;2.22;;;10.20;99.90;;;;;;5077272;28;20036;-63
2021/12/28 04:48:31;;;;;;;9.05;2.00;;;10.30;99.90;;;;;;5077331;28;20108;-63
2021/12/28 04:50:57;;;;;;;11.13;2.58;;;10.30;99.90;;;;;;5076879;28;20391;-63
2021/12/28 04:53:23;;;;;;;10.48;1.90;;;10.30;99.90;;;;;;5060326;28;20040;-63
2021/12/28 04:55:51;;;;;;;7.43;1.95;;;10.30;99.90;;;;;;5077169;28;20028;-63
2021/12/28 04:58:17;;;;;;;6.88;2.00;;;10.30;99.90;;;;;;5076830;28;20028;-63
2021/12/28 05:00:45;;;;;;;11.02;2.03;;;10.30;99.90;;;;;;5076991;28;20411;-64
2021/12/28 05:03:11;;;;;;;8.07;2.05;;;10.30;99.90;;;;;;5077077;28;20024;-63
2021/12/28 05:05:43;;;;;;;10.20;2.08;;;10.40;99.90;;;;;;5076978;28;20387;-63
2021/12/28 05:08:10;;;;;;;8.38;1.83;;;10.40;99.90;;;;;;5077227;28;20059;-63
2021/12/28 05:10:36;;;;;;;7.43;1.80;;;10.40;99.90;;;;;;5076995;28;20028;-63
2021/12/28 05:13:03;;;;;;;8.52;2.10;;;10.30;99.90;;;;;;5076912;28;20338;-63
2021/12/28 05:15:29;;;;;;;6.32;1.50;;;10.30;99.90;;;;;;5076898;28;20029;-63
2021/12/28 05:17:55;;;;;;;6.35;1.40;;;10.30;99.90;;;;;;5076882;28;20340;-63
2021/12/28 05:20:21;;;;;;;8.32;1.90;;;10.30;99.90;;;;;;5077152;28;20092;-62
2021/12/28 05:22:47;;;;;;;7.10;1.50;;;10.30;99.90;;;;;;5076777;28;20032;-62
2021/12/28 05:25:13;;;;;;;4.47;1.50;;;10.20;99.90;;;;;;5076793;28;20415;-63
2021/12/28 05:27:39;;;;;;;5.55;1.90;;;10.20;99.90;;;;;;5076002;28;20388;-62
2021/12/28 05:30:07;;;;;;;6.70;1.55;;;10.10;99.90;;;;;;5076729;28;20032;-62
2021/12/28 05:32:34;;;;;;;7.53;1.85;;;10.10;99.90;;;;;;5076706;28;20338;-64
2021/12/28 05:35:01;;;;;;;7.60;2.05;;;10.10;99.90;;;;;;5076587;28;20048;-62
2021/12/28 05:37:27;;;;;;;7.85;1.83;;;10.00;99.90;;;;;;5077184;28;20036;-63
2021/12/28 05:39:53;;;;;;;8.30;2.05;;;10.00;99.90;;;;;;5076623;28;20058;-63
2021/12/28 05:42:19;;;;;;;6.28;2.08;;;10.00;99.90;;;;;;5076660;28;20020;-62
2021/12/28 05:44:45;;;;;;;8.48;2.10;;;10.00;99.90;;;;;;5076617;28;20067;-63
2021/12/28 05:47:10;;;;;;;6.55;2.10;;;10.00;99.90;;;;;;5076631;28;20033;-63
2021/12/28 05:49:37;;;;;;;7.00;2.05;;;10.00;99.90;;;;;;5076581;28;20033;-63
2021/12/28 05:52:03;;;;;;;5.57;1.90;;;10.00;99.90;;;;;;5076460;28;20037;-63
2021/12/28 05:54:29;;;;;;;4.72;1.90;;;10.00;99.90;;;;;;5075730;28;20119;-64
2021/12/28 05:56:55;;;;;;;4.70;2.17;;;10.00;99.90;;;;;;5076461;28;20341;-63
2021/12/28 05:59:20;;;;;;;7.68;2.58;;;10.00;99.90;;;;;;5076732;28;20166;-63
2021/12/28 06:01:46;;;;;;;5.63;1.90;;;10.00;99.90;;;;;;5077864;28;20033;-63
2021/12/28 06:04:12;;;;;;;6.55;2.10;;;10.10;99.90;;;;;;5079648;28;20036;-63
2021/12/28 06:06:38;;;;;;;6.05;2.10;;;10.10;99.90;;;;;;5079771;28;20119;-63
2021/12/28 06:09:04;;;;;;;11.65;2.47;;;10.10;99.90;;;;;;5079592;28;20032;-63
2021/12/28 06:11:29;;;;;;;4.93;2.35;;;10.10;99.90;;;;;;5080830;28;20036;-63
2021/12/28 06:13:55;;;;;;;6.72;2.20;;;10.10;99.90;;;;;;5079356;28;20375;-63
2021/12/28 06:16:21;;;;;;;6.40;2.67;;;10.10;99.90;;;;;;5080058;28;20399;-63
2021/12/28 06:18:47;;;;;;;9.15;2.50;;;10.10;99.90;;;;;;5080033;28;20032;-64
2021/12/28 06:21:13;;;;;;;7.85;2.92;;;10.20;99.90;;;;;;5079430;28;20064;-62
2021/12/28 06:23:39;;;;;;;6.30;2.60;;;10.20;99.90;;;;;;5079954;28;20035;-63
2021/12/28 06:26:05;;;;;;;9.55;2.70;;;10.20;99.90;;;;;;5080014;28;20115;-63
2021/12/28 06:28:31;;;;;;;7.03;2.95;;;10.20;99.90;;;;;;5079908;28;20407;-63
2021/12/28 06:30:58;;;;;;;8.73;2.70;;;10.20;99.90;;;;;;5079917;28;20445;-64
2021/12/28 06:33:25;;;;;;;5.93;3.00;;;10.20;99.90;;;;;;5079747;28;20083;-63
2021/12/28 06:35:52;;;;;;;6.05;3.10;;;10.20;99.90;;;;;;5078971;28;20101;-63
2021/12/28 06:38:19;;;;;;;7.18;2.90;;;10.10;99.90;;;;;;5079791;28;20123;-63
2021/12/28 06:40:45;;;;;;;9.13;3.75;;;10.10;99.90;;;;;;5079674;28;20036;-62
2021/12/28 06:43:11;;;;;;;8.10;3.60;;;10.10;99.90;;;;;;5079572;28;20028;-63
2021/12/28 06:45:37;;;;;;;8.25;4.07;;;10.20;99.90;;;;;;5079714;28;20380;-63
2021/12/28 06:48:03;;;;;;;6.90;4.20;;;10.10;99.90;;;;;;5079441;28;20041;-63
2021/12/28 06:50:29;;;;;;;7.78;4.38;;;10.10;99.90;;;;;;5079595;28;20028;-63
2021/12/28 06:52:55;;;;;;;7.93;5.10;;;10.10;99.90;;;;;;5079787;28;20128;-63
2021/12/28 06:55:21;;;;;;;9.40;4.85;;;10.10;99.90;;;;;;5079752;28;20432;-64
2021/12/28 06:57:47;;;;;;;9.18;4.72;;;10.10;99.90;;;;;;5079409;28;20075;-62
2021/12/28 07:00:16;;;;;;;7.18;5.32;;;10.10;99.90;;;;;;5079384;28;20090;-63
2021/12/28 07:02:42;;;;;;;11.15;6.05;;;10.10;99.90;;;;;;5079749;28;20337;-63
2021/12/28 07:05:10;;;;;;;7.18;5.70;;;10.10;99.90;;;;;;5079284;28;20107;-63
2021/12/28 07:07:36;;;;;;;10.52;6.30;;;10.20;99.90;;;;;;5079290;28;20052;-63
2021/12/28 07:10:03;;;;;;;8.40;5.80;;;10.30;99.90;;;;;;5079155;28;20304;-64
2021/12/28 07:12:28;;;;;;;10.50;6.10;;;10.20;99.90;;;;;;5077956;28;20028;-63
2021/12/28 07:14:54;;;;;;;8.65;6.18;;;10.20;99.90;;;;;;5078950;28;20083;-63
2021/12/28 07:17:20;;;;;;;9.02;5.97;;;10.20;99.90;;;;;;5078939;28;20145;-63
2021/12/28 07:19:46;;;;;;;9.85;5.60;;;10.20;99.90;;;;;;5079064;28;20089;-63
2021/12/28 07:22:12;;;;;;;6.60;5.50;;;10.20;99.90;;;;;;5077976;28;20132;-63
2021/12/28 07:24:38;;;;;;;8.82;5.68;;;10.10;99.90;;;;;;5079033;28;20418;-63
2021/12/28 07:27:04;;;;;;;9.73;5.53;;;10.10;99.90;;;;;;5078708;28;20024;-63
2021/12/28 07:29:30;;;;;;;11.82;5.70;;;10.20;99.90;;;;;;5079099;28;20110;-63
2021/12/28 07:31:56;;;;;;;10.00;5.70;;;10.20;99.90;;;;;;5078633;28;20295;-62
2021/12/28 07:34:22;;;;;;;10.68;5.53;;;10.20;99.90;;;;;;5078624;28;20037;-64
2021/12/28 07:36:48;;;;;;;7.57;5.80;;;10.20;99.90;;;;;;5078593;28;20048;-63
2021/12/28 07:39:14;;;;;;;7.93;5.45;;;10.20;99.90;;;;;;5078432;28;20116;-63
2021/12/28 07:41:40;;;;;;;9.35;6.03;;;10.20;99.90;;;;;;5078482;28;20021;-64
2021/12/28 07:44:06;;;;;;;7.72;5.85;;;10.20;99.90;;;;;;5061125;28;20280;-64
2021/12/28 07:46:32;;;;;;;13.05;5.57;;;10.30;99.90;;;;;;5078503;28;20035;-63
2021/12/28 07:48:58;;;;;;;8.00;4.93;;;10.30;99.90;;;;;;5060871;28;20475;-63
2021/12/28 07:51:24;;;;;;;9.73;4.85;;;10.30;99.90;;;;;;5078385;28;20040;-61
2021/12/28 07:53:49;;;;;;;7.72;4.93;;;10.20;99.90;;;;;;5078369;28;20142;-63
2021/12/28 07:56:16;;;;;;;6.78;5.03;;;10.20;99.90;;;;;;5078309;28;20052;-63
2021/12/28 07:58:42;;;;;;;10.48;4.68;;;10.20;99.90;;;;;;5077553;28;20124;-63
2021/12/28 08:01:07;;;;;;;8.35;4.68;;;10.30;99.90;;;;;;5078833;28;20265;-63
2021/12/28 08:03:33;;;;;;;7.40;4.65;;;10.30;99.90;;;;;;5078176;28;20059;-63
2021/12/28 08:05:59;;;;;;;7.32;4.30;;;10.30;99.90;;;;;;5078096;28;20085;-62
2021/12/28 08:08:25;;;;;;;9.63;4.78;;;10.30;99.90;;;;;;5077363;28;20036;-62
2021/12/28 08:10:51;;;;;;;8.02;4.72;;;10.30;99.90;;;;;;5077930;28;20360;-64
2021/12/28 08:13:17;;;;;;;5.57;4.30;;;10.30;99.90;;;;;;5078139;28;20025;-64
2021/12/28 08:15:43;;;;;;;6.43;4.80;;;10.30;99.90;;;;;;5077995;28;20047;-61
2021/12/28 08:18:10;;;;;;;5.47;4.40;;;10.30;99.90;;;;;;5077849;28;20296;-62
2021/12/28 08:20:37;;;;;;;7.38;4.47;;;10.30;99.90;;;;;;5078011;28;20102;-62
2021/12/28 08:23:04;;;;;;;5.68;4.15;;;10.30;99.90;;;;;;5077487;28;20028;-61
2021/12/28 08:25:30;;;;;;;6.72;4.40;;;10.30;99.90;;;;;;5076949;28;20047;-61
2021/12/28 08:27:57;;;;;;;6.65;4.43;;;10.30;99.90;;;;;;5076927;28;20115;-60
2021/12/28 08:30:23;;;;;;;4.45;3.92;;;10.30;99.90;;;;;;5077442;28;20142;-62
2021/12/28 08:32:49;;;;;;;7.05;4.20;;;10.30;99.90;;;;;;5077438;28;20028;-62
2021/12/28 08:35:16;;;;;;;5.80;4.40;;;10.30;99.90;;;;;;5076552;28;20463;-64
2021/12/28 08:37:42;;;;;;;6.57;4.57;;;10.30;99.90;;;;;;5077393;28;20025;-59
2021/12/28 08:40:10;;;;;;;7.93;4.53;;;10.40;99.90;;;;;;5077345;28;20029;-59
2021/12/28 08:42:36;;;;;;;5.45;4.22;;;10.40;99.90;;;;;;5077311;28;20024;-59
2021/12/28 08:45:03;;;;;;;4.55;4.13;;;10.40;99.90;;;;;;5076702;28;20036;-64
2021/12/28 08:47:29;;;;;;;7.82;4.68;;;10.50;99.90;;;;;;5077282;28;20028;-60
2021/12/28 08:49:57;;;;;;;5.95;4.00;;;10.50;99.90;;;;;;5077273;28;20108;-61
2021/12/28 08:52:23;;;;;;;5.25;3.70;;;10.50;99.90;;;;;;5077087;28;20044;-60
2021/12/28 08:54:50;;;;;;;5.20;3.42;;;10.60;99.90;;;;;;5077127;28;20043;-61
2021/12/28 08:57:18;;;;;;;5.50;3.00;;;10.60;99.90;;;;;;5076364;28;20031;-60
2021/12/28 08:59:45;;;;;;;2.85;2.47;;;10.60;99.90;;;;;;5077460;28;20029;-60
2021/12/28 09:02:11;;;;;;;5.78;2.65;;;10.60;99.90;;;;;;5077029;28;20292;-60
2021/12/28 09:04:42;;;;;;;4.75;2.88;;;10.60;99.90;;;;;;5077077;28;20042;-63
2021/12/28 09:07:16;;;;;;;3.55;2.90;;;10.60;99.90;;;;;;5077202;28;20036;-60
2021/12/28 09:09:43;;;;;;;4.82;2.70;;;10.60;99.90;;;;;;5077107;28;20300;-60
2021/12/28 09:12:09;;;;;;;4.15;2.60;;;10.60;99.90;;;;;;5076954;28;20020;-61
2021/12/28 09:14:35;;;;;;;3.15;2.63;;;10.60;99.90;;;;;;5076846;28;20040;-61
2021/12/28 09:17:02;;;;;;;3.78;2.38;;;10.70;99.90;;;;;;5077189;28;20028;-60
2021/12/28 09:19:28;;;;;;;3.30;2.40;;;10.70;99.90;;;;;;5076267;28;20056;-62
2021/12/28 09:21:54;;;;;;;2.53;1.70;;;10.70;99.90;;;;;;5076817;28;20348;-61
2021/12/28 09:24:19;;;;;;;1.65;1.55;;;10.80;99.90;;;;;;5076921;28;20036;-60
2021/12/28 09:26:45;;;;;;;4.25;1.67;;;10.80;99.90;;;;;;5077053;28;20058;-61
2021/12/28 09:29:11;;;;;;;2.47;1.58;;;10.80;99.90;;;;;;5076737;28;20044;-61
2021/12/28 09:31:37;;;;;;;2.30;1.35;;;10.90;99.90;;;;;;5076724;28;20056;-60
2021/12/28 09:34:03;;;;;;;2.88;1.30;;;11.10;99.90;;;;;;5076672;28;20048;-63
2021/12/28 09:36:30;;;;;;;2.75;1.40;;;11.20;99.90;;;;;;5078643;28;20044;-60
2021/12/28 09:38:56;;;;;;;3.80;1.20;;;11.20;99.90;;;;;;5080100;28;20036;-60
2021/12/28 09:41:22;;;;;;;4.07;1.90;;;11.20;99.90;;;;;;5080826;28;20028;-61
2021/12/28 09:43:48;;;;;;;4.28;1.52;;;11.20;99.90;;;;;;5080647;28;20033;-60
2021/12/28 09:46:14;;;;;;;6.22;1.00;;;11.30;99.90;;;;;;5080670;28;20044;-60
2021/12/28 09:48:40;;;;;;;2.28;1.20;;;11.20;99.90;;;;;;5080707;28;20404;-59
2021/12/28 09:51:06;;;;;;;4.13;1.35;;;11.20;99.90;;;;;;5080847;28;20051;-60
2021/12/28 09:53:32;;;;;;;3.55;1.40;;;11.20;99.90;;;;;;5080524;28;20119;-59
2021/12/28 09:55:59;;;;;;;3.63;1.38;;;11.20;99.90;;;;;;5079823;28;20048;-58
2021/12/28 09:58:25;;;;;;;3.60;1.63;;;11.00;99.90;;;;;;5080461;28;20074;-59
2021/12/28 10:00:51;;;;;;;4.70;1.65;;;10.90;99.90;;;;;;5079763;28;20024;-59
2021/12/28 10:03:17;;;;;;;3.00;1.60;;;10.90;99.90;;;;;;5080619;28;20423;-58
2021/12/28 10:05:44;;;;;;;6.55;1.92;;;10.80;99.90;;;;;;5080337;28;20028;-59
2021/12/28 10:08:10;;;;;;;5.57;1.92;;;10.70;99.90;;;;;;5080459;28;20028;-60
2021/12/28 10:10:41;;;;;;;3.70;1.90;;;10.70;99.90;;;;;;5079546;28;20466;-59
2021/12/28 10:13:10;;;;;;;4.32;1.75;;;10.80;99.90;;;;;;5080256;28;20032;-57
2021/12/28 10:15:40;;;;;;;3.53;1.70;;;10.80;99.90;;;;;;5079475;28;20162;-58
2021/12/28 10:18:10;;;;;;;4.30;2.00;;;10.80;99.90;;;;;;5080555;28;20384;-58
2021/12/28 10:20:41;;;;;;;3.97;2.10;;;10.90;99.90;;;;;;5079397;28;20288;-58
2021/12/28 10:23:13;;;;;;;3.55;1.70;;;10.80;99.90;;;;;;5080175;28;20029;-60
2021/12/28 10:25:41;;;;;;;6.13;1.92;;;10.80;99.90;;;;;;5079442;28;20028;-60
2021/12/28 10:28:13;;;;;;;1.98;1.15;;;10.80;99.90;;;;;;5079332;28;20569;-59
2021/12/28 10:30:40;;;;;;;1.60;1.10;;;10.80;99.90;;;;;;5080031;28;20037;-60
2021/12/28 10:33:13;;;;;;;2.08;1.00;;;10.80;99.90;;;;;;5079668;28;20158;-59
2021/12/28 10:35:45;;;;;;;1.40;1.05;;;10.80;99.90;;;;;;5079765;28;20136;-59
2021/12/28 10:38:14;;;;;;;4.03;0.90;;;10.80;99.90;;;;;;5079940;28;20025;-62
2021/12/28 10:40:50;;;;;;;2.47;0.70;;;10.90;99.90;;;;;;5079792;28;20024;-61
2021/12/28 10:43:19;;;;;;;8.95;1.00;;;10.80;99.90;;;;;;5079730;28;20099;-63
2021/12/28 10:45:46;;;;;;;6.65;1.40;;;10.80;99.90;;;;;;5078891;28;20033;-60
2021/12/28 10:48:17;;;;;;;12.85;2.05;;;10.70;99.90;;;;;;5078796;28;20399;-61
2021/12/28 10:50:48;;;;;;;15.30;2.33;;;10.60;99.90;;;;;;5062083;28;20396;-61
2021/12/28 10:53:23;;;;;;;12.88;2.17;;;10.60;99.90;;;;;;5062040;28;20036;-60
2021/12/28 10:55:53;;;;;;;11.90;2.33;;;10.50;99.90;;;;;;5079796;28;20104;-61
2021/12/28 10:58:27;;;;;;;16.20;2.58;;;10.50;99.90;;;;;;5078944;28;20468;-60
2021/12/28 11:00:55;;;;;;;18.35;3.35;;;10.50;99.90;;;;;;5080133;28;20032;-60
2021/12/28 11:03:26;;;;;;;21.55;2.88;;;10.50;99.90;;;;;;5079374;28;20031;-61
2021/12/28 11:05:54;;;;;;;23.35;3.13;;;10.60;99.90;;;;;;5061993;28;20040;-61
2021/12/28 11:08:24;;;;;;;28.17;4.45;;;10.60;99.90;;;;;;5079008;28;20029;-62
2021/12/28 11:10:57;;;;;;;27.13;3.53;;;10.70;99.90;;;;;;5079097;28;20052;-63
2021/12/28 11:13:29;;;;;;;;;;;10.70;99.90;;;;;;5078800;28;20037;-64
2021/12/28 11:15:57;;;;;;;26.35;3.75;;;10.80;99.90;;;;;;5061734;28;20244;-65
2021/12/28 11:18:24;;;;;;;32.42;4.85;;;10.90;99.90;;;;;;5061662;28;20029;-61
2021/12/28 11:20:54;;;;;;;23.65;4.03;;;10.90;99.90;;;;;;5078489;28;20416;-61
2021/12/28 11:23:23;;;;;;;33.78;4.60;;;10.90;99.90;;;;;;5078325;28;20037;-63
2021/12/28 11:26:17;;;;;;;38.88;4.68;;;10.80;99.90;;;;;;5078964;28;20102;-62
2021/12/28 11:28:52;;;;;;;23.65;3.78;;;11.00;99.90;;;;;;5078793;28;20060;-61
2021/12/28 11:31:24;;;;;;;29.45;4.10;;;10.90;99.90;;;;;;5078824;28;20103;-62
2021/12/28 11:34:00;;;;;;;30.00;4.95;;;11.00;99.90;;;;;;5078071;28;20029;-62
2021/12/28 11:36:32;;;;;;;24.40;4.10;;;11.00;99.90;;;;;;5078601;28;20066;-61
2021/12/28 11:39:01;;;;;;;30.73;5.25;;;11.10;99.90;;;;;;5078779;28;20051;-62
2021/12/28 11:41:27;;;;;;;36.00;5.00;;;11.20;99.90;;;;;;5078583;28;20032;-62
2021/12/28 11:43:56;;;;;;;30.20;4.38;;;11.30;99.90;;;;;;5078527;28;20107;-62
2021/12/28 11:46:23;;;;;;;32.50;5.68;;;11.40;99.90;;;;;;5061222;28;20304;-63
2021/12/28 11:48:49;;;;;;;29.38;5.40;;;11.60;99.90;;;;;;5061024;28;20063;-61
2021/12/28 11:51:14;;;;;;;33.08;5.35;;;11.70;99.90;;;;;;5077529;28;20068;-63
2021/12/28 11:53:46;;;;;;;31.27;4.40;;;11.80;99.90;;;;;;5077430;28;20043;-62
2021/12/28 11:56:14;;;;;;;30.10;5.57;;;12.10;99.90;;;;;;5077647;28;20111;-62
2021/12/28 11:59:01;;;;;;;39.10;5.38;;;12.10;99.90;;;;;;5077787;28;20017;-62
2021/12/28 12:01:44;;;;;;;29.55;5.35;;;12.10;99.90;;;;;;5077885;28;20033;-62
2021/12/28 12:04:25;;;;;;;;;;;12.20;99.90;;;;;;5061111;28;20304;-62
2021/12/28 12:07:14;;;;;;;27.25;4.38;;;12.10;99.90;;;;;;5078120;28;20282;-64
2021/12/28 12:09:49;;;;;;;24.45;5.20;;;12.00;99.90;;;;;;5078071;28;20104;-67
2021/12/28 12:12:30;;;;;;;24.92;5.03;;;12.10;99.90;;;;;;5060481;28;20036;-64
2021/12/28 12:15:00;;;;;;;29.08;5.57;;;11.90;99.90;;;;;;5077835;28;20039;-62
2021/12/28 12:17:42;;;;;;;27.83;4.75;;;11.80;99.90;;;;;;5077813;28;20032;-63
2021/12/28 12:20:23;;;;;;;22.48;4.70;;;11.80;99.90;;;;;;5078004;28;20031;-64
2021/12/28 12:22:55;;;;;;;25.23;4.65;;;11.80;99.90;;;;;;5077669;28;20028;-64
2021/12/28 12:25:33;;;;;;;31.42;5.13;;;11.90;99.90;;;;;;5077728;28;20111;-66
2021/12/28 12:28:02;;;;;;;20.08;3.75;;;11.90;99.90;;;;;;5076904;28;20083;-61
2021/12/28 12:30:28;;;;;;;17.30;3.33;;;11.80;99.90;;;;;;5076890;28;20036;-64
2021/12/28 12:33:07;;;;;;;18.13;2.88;;;11.60;99.90;;;;;;5076712;28;20028;-63
2021/12/28 12:35:34;;;;;;;22.25;3.35;;;11.60;99.90;;;;;;5077458;28;20057;-67
2021/12/28 12:38:26;;;;;;;25.50;3.83;;;11.80;99.90;;;;;;5059976;28;20129;-68
2021/12/28 12:41:08;;;;;;;23.23;3.58;;;12.10;99.90;;;;;;5076839;28;20027;-65
2021/12/28 12:43:40;;;;;;;27.13;3.85;;;12.00;99.90;;;;;;5076654;28;20020;-65
2021/12/28 12:46:10;;;;;;;23.52;4.10;;;11.90;99.90;;;;;;5076679;28;20299;-60